createdAt,value
2023-08-02T00:01:35.587Z,28.69
2023-08-02T00:04:10.958Z,28.69
2023-08-02T00:06:41.643Z,28.69
2023-08-02T00:09:11.274Z,28.68
2023-08-02T00:11:43.060Z,28.68
2023-08-02T00:14:12.483Z,28.67
2023-08-02T00:16:47.287Z,28.66
2023-08-02T00:19:17.743Z,28.67
2023-08-02T00:21:47.351Z,28.67
2023-08-02T00:24:16.392Z,28.67
2023-08-02T00:26:46.134Z,28.67
2023-08-02T00:29:15.816Z,28.66
2023-08-02T00:31:45.247Z,28.69
2023-08-02T00:34:14.902Z,28.68
2023-08-02T00:36:44.952Z,28.70
2023-08-02T00:39:15.304Z,28.71
2023-08-02T00:42:06.405Z,28.74
2023-08-02T00:44:36.088Z,28.76
2023-08-02T00:47:05.491Z,28.76
2023-08-02T00:49:35.506Z,28.79
2023-08-02T00:52:04.880Z,28.80
2023-08-02T00:54:34.622Z,28.83
2023-08-02T00:57:04.492Z,28.85
2023-08-02T00:59:33.844Z,28.87
2023-08-02T01:02:03.611Z,28.90
2023-08-02T01:04:32.782Z,28.93
2023-08-02T01:07:13.965Z,28.98
2023-08-02T01:09:50.268Z,29.02
2023-08-02T01:12:22.281Z,29.05
2023-08-02T01:15:00.161Z,29.08
2023-08-02T01:17:30.229Z,29.14
2023-08-02T01:20:09.393Z,29.17
2023-08-02T01:22:40.094Z,29.20
2023-08-02T01:25:11.063Z,29.25
2023-08-02T01:27:50.905Z,29.31
2023-08-02T01:30:22.986Z,29.34
2023-08-02T01:32:52.903Z,29.41
2023-08-02T01:35:23.515Z,29.45
2023-08-02T01:37:53.185Z,29.53
2023-08-02T01:40:22.263Z,29.63
2023-08-02T01:42:51.866Z,29.69
2023-08-02T01:45:21.090Z,29.76
2023-08-02T01:47:50.931Z,29.84
2023-08-02T01:50:21.000Z,29.93
2023-08-02T01:52:51.287Z,30.04
2023-08-02T01:55:21.430Z,30.31
2023-08-02T01:57:50.697Z,30.62
2023-08-02T02:00:20.178Z,30.99
2023-08-02T02:02:49.759Z,31.31
2023-08-02T02:05:20.928Z,31.63
2023-08-02T02:07:50.849Z,31.82
2023-08-02T02:10:20.243Z,32.17
2023-08-02T02:12:49.311Z,32.52
2023-08-02T02:15:18.440Z,32.77
2023-08-02T02:17:47.617Z,33.21
2023-08-02T02:20:16.790Z,33.38
2023-08-02T02:22:45.969Z,33.31
2023-08-02T02:25:17.064Z,33.12
2023-08-02T02:27:46.126Z,33.38
2023-08-02T02:30:15.965Z,33.54
2023-08-02T02:32:45.725Z,33.56
2023-08-02T02:35:14.939Z,33.68
2023-08-02T02:37:45.388Z,33.99
2023-08-02T02:40:15.609Z,34.00
2023-08-02T02:42:45.001Z,33.98
2023-08-02T02:45:16.301Z,34.13
2023-08-02T02:47:46.112Z,34.45
2023-08-02T02:50:15.498Z,34.41
2023-08-02T02:52:45.044Z,34.14
2023-08-02T02:55:14.132Z,34.50
2023-08-02T02:57:43.371Z,34.22
2023-08-02T03:00:13.118Z,34.25
2023-08-02T03:02:42.466Z,34.20
2023-08-02T03:05:11.719Z,33.93
2023-08-02T03:07:41.015Z,34.00
2023-08-02T03:10:10.503Z,33.68
2023-08-02T03:12:39.781Z,33.75
2023-08-02T03:15:09.836Z,33.65
2023-08-02T03:17:39.162Z,33.60
2023-08-02T03:20:09.256Z,33.59
2023-08-02T03:22:38.610Z,33.36
2023-08-02T03:25:07.908Z,33.39
2023-08-02T03:27:37.237Z,33.40
2023-08-02T03:30:06.833Z,33.10
2023-08-02T03:32:36.468Z,33.12
2023-08-02T03:35:06.402Z,33.24
2023-08-02T03:37:38.748Z,33.19
2023-08-02T03:40:09.082Z,33.29
2023-08-02T03:42:38.468Z,33.25
2023-08-02T03:45:08.045Z,33.41
2023-08-02T03:47:38.235Z,33.61
2023-08-02T03:50:07.793Z,33.70
2023-08-02T03:52:37.252Z,33.98
2023-08-02T03:55:06.893Z,34.15
2023-08-02T03:57:36.129Z,34.05
2023-08-02T04:00:06.308Z,34.05
2023-08-02T04:02:43.785Z,34.23
2023-08-02T04:05:13.551Z,34.02
2023-08-02T04:07:42.594Z,34.07
2023-08-02T04:10:12.414Z,34.21
2023-08-02T04:12:41.989Z,34.23
2023-08-02T04:15:12.336Z,34.34
2023-08-02T04:17:42.771Z,34.07
2023-08-02T04:20:12.765Z,33.86
2023-08-02T04:22:41.823Z,33.86
2023-08-02T04:25:11.474Z,33.93
2023-08-02T04:27:40.568Z,34.12
2023-08-02T04:30:10.852Z,34.32
2023-08-02T04:32:40.378Z,34.45
2023-08-02T04:35:09.741Z,34.54
2023-08-02T04:37:39.123Z,34.90
2023-08-02T04:40:08.732Z,35.06
2023-08-02T04:42:38.148Z,35.25
2023-08-02T04:45:07.900Z,35.52
2023-08-02T04:47:38.052Z,35.59
2023-08-02T04:50:08.881Z,35.90
2023-08-02T04:52:39.826Z,36.18
2023-08-02T04:55:10.199Z,36.03
2023-08-02T04:57:40.729Z,35.75
2023-08-02T05:00:10.667Z,36.22
2023-08-02T05:02:39.812Z,36.01
2023-08-02T05:05:09.536Z,36.15
2023-08-02T05:07:41.609Z,36.42
2023-08-02T05:10:11.967Z,36.35
2023-08-02T05:12:42.495Z,36.21
2023-08-02T05:15:13.059Z,36.08
2023-08-02T05:17:42.776Z,35.85
2023-08-02T05:20:12.557Z,36.11
2023-08-02T05:22:42.274Z,35.86
2023-08-02T05:25:12.003Z,35.63
2023-08-02T05:27:41.425Z,35.47
2023-08-02T05:30:11.119Z,35.73
2023-08-02T05:32:40.396Z,35.93
2023-08-02T05:35:09.982Z,36.13
2023-08-02T05:37:39.485Z,36.39
2023-08-02T05:40:09.681Z,36.29
2023-08-02T05:42:39.132Z,36.39
2023-08-02T05:45:09.292Z,36.36
2023-08-02T05:47:39.908Z,36.19
2023-08-02T05:50:11.141Z,36.33
2023-08-02T05:52:40.528Z,36.23
2023-08-02T05:55:13.043Z,36.43
2023-08-02T05:57:43.734Z,36.51
2023-08-02T06:00:13.634Z,36.54
2023-08-02T06:02:43.359Z,36.11
2023-08-02T06:05:12.920Z,36.17
2023-08-02T06:07:42.720Z,36.13
2023-08-02T06:10:12.501Z,35.94
2023-08-02T06:12:41.892Z,36.25
2023-08-02T06:15:11.754Z,36.48
2023-08-02T06:17:41.265Z,36.27
2023-08-02T06:20:11.860Z,36.03
2023-08-02T06:22:41.704Z,36.30
2023-08-02T06:25:11.604Z,36.10
2023-08-02T06:27:40.911Z,36.05
2023-08-02T06:30:10.908Z,36.30
2023-08-02T06:32:41.165Z,36.49
2023-08-02T06:35:12.663Z,36.39
2023-08-02T06:37:42.357Z,36.12
2023-08-02T06:40:12.861Z,35.83
2023-08-02T06:42:43.141Z,35.75
2023-08-02T06:45:12.826Z,36.03
2023-08-02T06:47:42.176Z,35.98
2023-08-02T06:50:12.084Z,36.19
2023-08-02T06:52:41.638Z,36.18
2023-08-02T06:55:11.637Z,36.29
2023-08-02T06:57:41.177Z,35.94
2023-08-02T07:00:11.266Z,36.02
2023-08-02T07:02:40.732Z,36.32
2023-08-02T07:05:11.122Z,36.20
2023-08-02T07:07:40.765Z,35.79
2023-08-02T07:10:10.420Z,35.55
2023-08-02T07:12:40.079Z,35.45
2023-08-02T07:15:09.445Z,35.71
2023-08-02T07:17:39.131Z,36.02
2023-08-02T07:20:10.324Z,35.99
2023-08-02T07:22:40.250Z,36.12
2023-08-02T07:25:09.899Z,36.03
2023-08-02T07:27:40.554Z,36.08
2023-08-02T07:30:10.780Z,36.28
2023-08-02T07:32:40.529Z,36.18
2023-08-02T07:35:10.149Z,36.10
2023-08-02T07:37:39.494Z,36.22
2023-08-02T07:40:09.460Z,36.22
2023-08-02T07:42:39.160Z,36.21
2023-08-02T07:45:13.613Z,36.06
2023-08-02T07:47:43.184Z,36.28
2023-08-02T07:50:13.375Z,36.26
2023-08-02T07:52:43.227Z,36.38
2023-08-02T07:55:13.570Z,36.39
2023-08-02T07:57:42.813Z,36.26
2023-08-02T08:00:13.608Z,36.29
2023-08-02T08:02:43.190Z,36.40
2023-08-02T08:05:12.521Z,36.23
2023-08-02T08:07:42.152Z,35.96
2023-08-02T08:10:11.785Z,36.10
2023-08-02T08:12:41.331Z,36.15
2023-08-02T08:15:10.824Z,36.17
2023-08-02T08:17:40.951Z,36.01
2023-08-02T08:20:13.219Z,36.10
2023-08-02T08:22:42.656Z,36.19
2023-08-02T08:25:17.092Z,36.12
2023-08-02T08:27:47.245Z,35.95
2023-08-02T08:30:16.415Z,35.99
2023-08-02T08:32:45.762Z,36.02
2023-08-02T08:35:15.161Z,35.90
2023-08-02T08:37:45.414Z,35.87
2023-08-02T08:40:22.921Z,35.85
2023-08-02T08:42:54.628Z,35.87
2023-08-02T08:45:28.261Z,35.83
2023-08-02T08:47:57.682Z,35.93
2023-08-02T08:50:29.942Z,35.91
2023-08-02T08:53:06.985Z,35.93
2023-08-02T08:55:38.333Z,35.95
2023-08-02T08:58:11.229Z,35.97
2023-08-02T09:00:41.828Z,35.99
2023-08-02T09:03:15.127Z,35.93
2023-08-02T09:05:45.418Z,35.94
2023-08-02T09:08:15.361Z,35.97
2023-08-02T09:10:45.795Z,36.00
2023-08-02T09:13:25.654Z,35.88
2023-08-02T09:16:21.195Z,35.85
2023-08-02T09:18:51.646Z,35.91
2023-08-02T09:21:24.722Z,35.98
2023-08-02T09:24:03.063Z,35.81
2023-08-02T09:26:32.488Z,35.82
2023-08-02T09:29:02.026Z,35.80
2023-08-02T09:31:33.756Z,35.91
2023-08-02T09:34:04.302Z,35.87
2023-08-02T09:36:36.562Z,35.85
2023-08-02T09:39:13.601Z,35.82
2023-08-02T09:41:58.769Z,35.73
2023-08-02T09:44:31.631Z,35.73
2023-08-02T09:47:14.622Z,35.67
2023-08-02T09:49:44.095Z,35.74
2023-08-02T09:52:27.935Z,35.87
2023-08-02T09:54:57.420Z,35.85
2023-08-02T09:57:31.620Z,35.87
2023-08-02T10:00:12.175Z,35.92
2023-08-02T10:02:45.161Z,35.91
2023-08-02T10:05:16.263Z,35.82
2023-08-02T10:07:53.542Z,35.67
2023-08-02T10:10:28.239Z,35.72
2023-08-02T10:13:10.887Z,35.80
2023-08-02T10:15:42.677Z,35.72
2023-08-02T10:18:14.420Z,35.68
2023-08-02T10:20:44.614Z,35.54
2023-08-02T10:23:14.156Z,35.47
2023-08-02T10:25:45.166Z,35.39
2023-08-02T10:28:15.792Z,35.35
2023-08-02T10:30:45.390Z,35.35
2023-08-02T10:33:21.017Z,35.32
2023-08-02T10:35:56.836Z,35.20
2023-08-02T10:38:48.642Z,35.17
2023-08-02T10:41:23.514Z,35.13
2023-08-02T10:43:56.276Z,35.08
2023-08-02T10:46:34.703Z,35.11
2023-08-02T10:49:26.832Z,35.08
2023-08-02T10:51:58.711Z,35.08
2023-08-02T10:54:29.091Z,35.05
2023-08-02T10:57:07.124Z,35.09
2023-08-02T10:59:36.915Z,35.18
2023-08-02T11:02:14.165Z,35.20
2023-08-02T11:04:49.475Z,35.30
2023-08-02T11:07:21.561Z,35.37
2023-08-02T11:09:56.945Z,35.36
2023-08-02T11:12:28.607Z,35.35
2023-08-02T11:14:58.538Z,35.34
2023-08-02T11:22:38.728Z,35.36
2023-08-02T11:25:09.040Z,35.30
2023-08-02T11:30:11.014Z,35.27
2023-08-02T11:32:49.033Z,35.25
2023-08-02T11:35:20.683Z,35.25
2023-08-02T11:37:50.808Z,35.23
2023-08-02T11:40:26.828Z,35.17
2023-08-02T11:42:59.161Z,35.18
2023-08-02T11:45:35.087Z,35.17
2023-08-02T11:48:10.714Z,35.13
2023-08-02T11:50:41.868Z,35.07
2023-08-02T11:53:12.203Z,34.99
2023-08-02T11:55:47.313Z,34.91
2023-08-02T11:58:20.209Z,34.90
2023-08-02T12:00:50.442Z,34.97
2023-08-02T12:03:22.164Z,34.95
2023-08-02T12:06:01.845Z,34.98
2023-08-02T12:08:32.482Z,34.93
2023-08-02T12:11:02.398Z,34.85
2023-08-02T12:13:32.105Z,34.77
2023-08-02T12:16:08.674Z,34.78
2023-08-02T12:19:03.890Z,34.72
2023-08-02T12:21:33.720Z,34.66
2023-08-02T12:24:15.248Z,34.64
2023-08-02T12:26:45.931Z,34.61
2023-08-02T12:29:27.203Z,34.57
2023-08-02T12:31:57.048Z,34.57
2023-08-02T12:34:29.981Z,34.53
2023-08-02T12:37:01.943Z,34.53
2023-08-02T12:39:31.519Z,34.51
2023-08-02T12:42:00.625Z,34.53
2023-08-02T12:44:30.185Z,34.45
2023-08-02T12:46:59.438Z,34.39
2023-08-02T12:49:32.651Z,34.34
2023-08-02T12:52:02.255Z,34.30
2023-08-02T12:54:31.360Z,34.28
2023-08-02T12:57:00.883Z,34.28
2023-08-02T12:59:30.379Z,34.22
2023-08-02T13:02:00.602Z,34.14
2023-08-02T13:04:30.595Z,34.09
2023-08-02T13:07:00.322Z,34.06
2023-08-02T13:09:30.164Z,34.00
2023-08-02T13:12:07.702Z,33.97
2023-08-02T13:14:38.581Z,33.94
2023-08-02T13:17:07.975Z,33.91
2023-08-02T13:19:37.655Z,33.86
2023-08-02T13:22:07.601Z,33.83
2023-08-02T13:24:37.258Z,33.83
2023-08-02T13:27:07.632Z,33.83
2023-08-02T13:29:38.028Z,33.92
2023-08-02T13:32:07.673Z,34.01
2023-08-02T13:34:36.896Z,33.98
2023-08-02T13:37:07.919Z,33.93
2023-08-02T13:39:38.026Z,33.91
2023-08-02T13:42:07.964Z,33.91
2023-08-02T13:44:38.390Z,33.88
2023-08-02T13:47:08.749Z,33.80
2023-08-02T13:49:38.177Z,33.75
2023-08-02T13:52:07.777Z,33.68
2023-08-02T13:54:37.152Z,33.67
2023-08-02T13:57:06.715Z,33.28
2023-08-02T13:59:36.526Z,32.97
2023-08-02T14:02:06.558Z,32.67
2023-08-02T14:04:46.852Z,32.46
2023-08-02T14:07:17.120Z,31.96
2023-08-02T14:09:46.553Z,31.85
2023-08-02T14:12:16.936Z,31.56
2023-08-02T14:14:46.521Z,31.36
2023-08-02T14:17:15.839Z,31.36
2023-08-02T14:19:45.655Z,31.41
2023-08-02T14:22:14.964Z,31.51
2023-08-02T14:24:44.640Z,30.76
2023-08-02T14:27:13.937Z,30.65
2023-08-02T14:29:43.648Z,30.54
2023-08-02T14:32:13.039Z,30.49
2023-08-02T14:34:44.851Z,30.48
2023-08-02T14:37:15.602Z,30.36
2023-08-02T14:39:46.420Z,30.18
2023-08-02T14:42:17.705Z,30.22
2023-08-02T14:44:47.600Z,30.01
2023-08-02T14:47:17.118Z,29.95
2023-08-02T14:49:56.278Z,29.77
2023-08-02T14:52:26.884Z,29.78
2023-08-02T14:54:57.239Z,29.81
2023-08-02T14:57:27.037Z,30.02
2023-08-02T14:59:56.959Z,29.99
2023-08-02T15:02:26.186Z,29.97
2023-08-02T15:04:56.588Z,29.91
2023-08-02T15:07:27.105Z,30.03
2023-08-02T15:09:56.525Z,30.10
2023-08-02T15:12:25.765Z,30.16
2023-08-02T15:14:55.298Z,30.17
2023-08-02T15:17:24.526Z,30.15
2023-08-02T15:19:54.892Z,30.13
2023-08-02T15:22:24.298Z,30.16
2023-08-02T15:24:53.463Z,30.16
2023-08-02T15:27:22.961Z,30.15
2023-08-02T15:29:52.403Z,30.05
2023-08-02T15:32:21.714Z,30.07
2023-08-02T15:34:51.196Z,30.03
2023-08-02T15:37:20.618Z,30.06
2023-08-02T15:39:51.892Z,30.08
2023-08-02T15:42:25.989Z,30.04
2023-08-02T15:44:57.151Z,29.99
2023-08-02T15:47:26.736Z,30.05
2023-08-02T15:49:56.179Z,30.10
2023-08-02T15:52:26.483Z,30.15
2023-08-02T15:54:56.151Z,30.18
2023-08-02T15:57:26.250Z,30.15
2023-08-02T15:59:55.736Z,30.13
2023-08-02T16:02:30.319Z,30.15
2023-08-02T16:05:00.284Z,30.16
2023-08-02T16:07:29.642Z,30.08
2023-08-02T16:10:01.093Z,29.99
2023-08-02T16:12:30.499Z,29.85
2023-08-02T16:15:01.576Z,29.70
2023-08-02T16:17:31.198Z,29.76
2023-08-02T16:20:00.581Z,29.78
2023-08-02T16:22:33.553Z,29.73
2023-08-02T16:25:03.542Z,29.67
2023-08-02T16:27:41.977Z,29.64
2023-08-02T16:30:11.990Z,29.47
2023-08-02T16:32:44.328Z,29.54
2023-08-02T16:35:14.052Z,29.53
2023-08-02T16:37:43.598Z,29.52
2023-08-02T16:40:13.590Z,29.47
2023-08-02T16:42:44.123Z,29.42
2023-08-02T16:45:14.049Z,29.46
2023-08-02T16:47:49.535Z,29.50
2023-08-02T16:50:25.202Z,29.50
2023-08-02T16:52:59.212Z,29.48
2023-08-02T16:55:37.546Z,29.42
2023-08-02T16:58:07.439Z,29.40
2023-08-02T17:00:37.788Z,29.40
2023-08-02T17:03:07.718Z,29.32
2023-08-02T17:05:38.421Z,29.33
2023-08-02T17:08:08.904Z,29.27
2023-08-02T17:10:38.279Z,29.28
2023-08-02T17:13:08.262Z,29.33
2023-08-02T17:15:38.150Z,29.30
2023-08-02T17:18:07.439Z,29.25
2023-08-02T17:20:37.287Z,29.25
2023-08-02T17:23:07.031Z,29.28
2023-08-02T17:25:37.031Z,29.25
2023-08-02T17:28:06.703Z,29.28
2023-08-02T17:30:36.150Z,29.26
2023-08-02T17:33:06.227Z,29.15
2023-08-02T17:35:39.414Z,29.15
2023-08-02T17:38:11.203Z,29.19
2023-08-02T17:40:41.665Z,29.20
2023-08-02T17:43:13.057Z,29.19
2023-08-02T17:45:42.657Z,29.18
2023-08-02T17:48:15.364Z,29.13
2023-08-02T17:50:54.826Z,29.20
2023-08-02T17:53:25.754Z,29.20
2023-08-02T17:56:03.392Z,29.13
2023-08-02T17:58:36.076Z,29.16
2023-08-02T18:01:19.793Z,29.19
2023-08-02T18:03:50.520Z,29.27
2023-08-02T18:06:26.850Z,29.37
2023-08-02T18:08:57.884Z,29.43
2023-08-02T18:11:27.842Z,29.43
2023-08-02T18:13:58.459Z,29.46
2023-08-02T18:16:29.733Z,29.46
2023-08-02T18:18:59.549Z,29.48
2023-08-02T18:21:28.656Z,29.50
2023-08-02T18:23:58.610Z,29.41
2023-08-02T18:26:27.923Z,29.38
2023-08-02T18:28:57.197Z,29.41
2023-08-02T18:31:26.826Z,29.50
2023-08-02T18:33:56.850Z,29.41
2023-08-02T18:36:26.946Z,29.43
2023-08-02T18:38:57.408Z,29.39
2023-08-02T18:41:27.156Z,29.42
2023-08-02T18:43:57.642Z,29.45
2023-08-02T18:46:27.025Z,29.48
2023-08-02T18:48:57.174Z,29.43
2023-08-02T18:51:28.457Z,29.34
2023-08-02T18:53:59.181Z,29.35
2023-08-02T18:56:28.923Z,29.40
2023-08-02T18:58:58.947Z,29.30
2023-08-02T19:01:29.995Z,29.38
2023-08-02T19:04:00.149Z,29.40
2023-08-02T19:06:30.901Z,29.41
2023-08-02T19:09:01.426Z,29.43
2023-08-02T19:11:34.093Z,29.42
2023-08-02T19:14:03.742Z,29.40
2023-08-02T19:16:33.433Z,29.35
2023-08-02T19:19:03.349Z,29.26
2023-08-02T19:21:33.410Z,29.33
2023-08-02T19:24:03.042Z,29.34
2023-08-02T19:26:32.628Z,29.34
2023-08-02T19:29:02.117Z,29.37
2023-08-02T19:31:32.449Z,29.39
2023-08-02T19:34:04.511Z,29.34
2023-08-02T19:36:34.777Z,29.32
2023-08-02T19:39:04.585Z,29.28
2023-08-02T19:41:34.055Z,29.29
2023-08-02T19:44:03.514Z,29.32
2023-08-02T19:46:33.122Z,29.34
2023-08-02T19:49:04.530Z,29.35
2023-08-02T19:51:34.645Z,29.18
2023-08-02T19:54:04.681Z,29.29
2023-08-02T19:56:35.018Z,29.29
2023-08-02T19:59:04.594Z,29.35
2023-08-02T20:01:33.818Z,29.35
2023-08-02T20:04:04.423Z,29.35
2023-08-02T20:06:35.938Z,29.29
2023-08-02T20:09:06.997Z,29.32
2023-08-02T20:11:36.424Z,29.36
2023-08-02T20:14:06.245Z,29.32
2023-08-02T20:16:38.188Z,29.37
2023-08-02T20:19:15.271Z,29.35
2023-08-02T20:21:48.568Z,29.37
2023-08-02T20:24:18.971Z,29.32
2023-08-02T20:26:52.452Z,29.32
2023-08-02T20:29:26.804Z,29.32
2023-08-02T20:31:56.472Z,29.33
2023-08-02T20:34:27.472Z,29.25
2023-08-02T20:36:56.942Z,29.23
2023-08-02T20:39:29.502Z,29.24
2023-08-02T20:41:59.083Z,29.25
2023-08-02T20:44:28.332Z,29.24
2023-08-02T20:46:58.339Z,29.26
2023-08-02T20:49:27.625Z,29.25
2023-08-02T20:51:56.923Z,29.25
2023-08-02T20:54:26.556Z,29.23
2023-08-02T20:56:55.972Z,29.25
2023-08-02T20:59:28.431Z,29.23
2023-08-02T21:01:58.226Z,29.23
2023-08-02T21:04:27.552Z,29.21
2023-08-02T21:07:09.487Z,29.19
2023-08-02T21:09:40.715Z,29.17
2023-08-02T21:12:10.398Z,29.17
2023-08-02T21:14:41.378Z,29.15
2023-08-02T21:17:17.862Z,29.14
2023-08-02T21:19:48.938Z,29.15
2023-08-02T21:22:19.369Z,29.14
2023-08-02T21:24:48.858Z,29.09
2023-08-02T21:27:18.681Z,29.10
2023-08-02T21:29:49.086Z,29.02
2023-08-02T21:32:21.252Z,29.06
2023-08-02T21:34:55.852Z,29.06
2023-08-02T21:37:25.304Z,29.06
2023-08-02T21:39:54.638Z,29.06
2023-08-02T21:42:28.721Z,29.07
2023-08-02T21:45:00.237Z,29.03
2023-08-02T21:47:30.188Z,29.06
2023-08-02T21:49:59.571Z,29.06
2023-08-02T21:52:28.801Z,28.90
2023-08-02T21:54:58.259Z,28.97
2023-08-02T21:57:27.396Z,29.02
2023-08-02T21:59:59.092Z,29.03
2023-08-02T22:02:41.524Z,29.00
2023-08-02T22:05:17.654Z,28.98
2023-08-02T22:07:47.190Z,28.99
2023-08-02T22:10:20.260Z,28.99
2023-08-02T22:12:50.232Z,28.96
2023-08-02T22:15:20.981Z,28.94
2023-08-02T22:17:52.882Z,28.96
2023-08-02T22:20:22.604Z,28.97
2023-08-02T22:22:51.929Z,28.96
2023-08-02T22:25:21.908Z,28.93
2023-08-02T22:27:51.617Z,28.89
2023-08-02T22:30:20.782Z,28.83
2023-08-02T22:32:50.532Z,28.79
2023-08-02T22:35:19.864Z,28.85
2023-08-02T22:37:50.257Z,28.80
2023-08-02T22:40:19.797Z,28.77
2023-08-02T22:42:48.892Z,28.82
2023-08-02T22:45:18.393Z,28.79
2023-08-02T22:47:59.187Z,28.79
2023-08-02T22:53:12.013Z,28.79
2023-08-02T22:55:41.489Z,28.77
2023-08-02T22:58:11.523Z,28.79
2023-08-02T23:00:40.665Z,28.80
2023-08-02T23:03:39.294Z,28.80
2023-08-02T23:06:12.434Z,28.68
2023-08-02T23:08:42.377Z,28.73
2023-08-02T23:11:18.956Z,28.73
2023-08-02T23:13:51.454Z,28.74
2023-08-02T23:16:26.903Z,28.78
2023-08-02T23:18:58.746Z,28.79
2023-08-02T23:21:33.355Z,28.62
2023-08-02T23:24:05.142Z,28.69
2023-08-02T23:26:34.606Z,28.78
2023-08-02T23:29:05.557Z,28.77
2023-08-02T23:31:35.482Z,28.73
2023-08-02T23:34:04.679Z,28.72
2023-08-02T23:36:34.222Z,28.74
2023-08-02T23:39:03.459Z,28.76
2023-08-02T23:41:33.227Z,28.75
2023-08-02T23:44:02.454Z,28.77
2023-08-02T23:46:31.827Z,28.72
2023-08-02T23:49:01.725Z,28.76
2023-08-02T23:51:31.118Z,28.78
2023-08-02T23:54:02.579Z,28.70
2023-08-02T23:56:32.339Z,28.66
2023-08-02T23:59:01.934Z,28.70
